Time;durP1;ratioP1;P1;durP2;ratioP2;P2;SDS_P1;SDS_P2;PMS_P1;PMS_P2;Temp;Humidity;BMP_temperature;BMP_pressure;BME280_temperature;BME280_humidity;BME280_pressure;Samples;Min_cycle;Max_cycle;Signal;HPM_P1;HPM_P2
2022/05/02 00:00:41;;;;;;;;;;;;;;;7.60;68.00;101507.38;4993240;28;20120;-85
2022/05/02 00:03:10;;;;;;;6.20;4.53;;;;;;;7.55;67.77;101503.81;5007217;28;19925;-85
2022/05/02 00:05:39;;;;;;;11.85;6.18;;;;;;;7.51;68.17;101504.63;4977661;28;20068;-86
2022/05/02 00:08:09;;;;;;;6.18;4.13;;;;;;;7.48;68.33;101504.56;5005780;28;20097;-86
2022/05/02 00:10:36;;;;;;;5.55;4.93;;;;;;;7.44;68.38;101505.34;4989889;28;20046;-84
2022/05/02 00:13:03;;;;;;;5.32;4.03;;;;;;;7.39;69.06;101494.88;5009025;28;20838;-86
2022/05/02 00:15:31;;;;;;;3.75;3.45;;;;;;;7.34;69.05;101495.63;4994661;28;20072;-84
2022/05/02 00:17:59;;;;;;;5.80;4.90;;;;;;;7.33;69.42;101499.09;5009911;28;20492;-84
2022/05/02 00:20:40;;;;;;;10.73;4.65;;;;;;;7.31;69.66;101490.38;4995353;28;20050;-86
2022/05/02 00:23:22;;;;;;;;;;;;;;;;;;;;;
2022/05/02 00:25:51;;;;;;;5.88;4.68;;;;;;;7.22;69.92;101486.75;4977272;28;20050;-86
2022/05/02 00:28:18;;;;;;;6.75;4.70;;;;;;;7.22;70.40;101491.06;4994631;28;20819;-85
2022/05/02 00:30:45;;;;;;;5.95;4.20;;;;;;;7.20;70.25;101490.19;4995505;28;20537;-86
2022/05/02 00:33:11;;;;;;;6.70;5.32;;;;;;;7.17;70.64;101490.09;5009177;28;20046;-87
2022/05/02 00:35:38;;;;;;;4.03;3.65;;;;;;;7.12;71.19;101487.44;4979209;28;21314;-85
2022/05/02 00:38:05;;;;;;;4.55;4.15;;;;;;;7.12;71.33;101485.69;4996253;28;20128;-86
2022/05/02 00:40:32;;;;;;;4.28;3.45;;;;;;;7.08;71.17;101483.88;4991342;28;20050;-84
2022/05/02 00:42:59;;;;;;;7.90;3.72;;;;;;;7.05;71.64;101478.63;4980411;28;20129;-84
2022/05/02 00:45:26;;;;;;;7.43;4.47;;;;;;;7.03;71.59;101475.13;4984051;28;20049;-85
2022/05/02 00:47:58;;;;;;;6.38;5.10;;;;;;;6.97;71.95;101475.00;5009951;28;20053;-86
2022/05/02 00:50:40;;;;;;;7.25;4.28;;;;;;;6.97;72.08;101474.13;5007087;28;20065;-85
2022/05/02 00:53:11;;;;;;;7.82;4.03;;;;;;;6.97;72.33;101474.13;5009578;28;20058;-84
2022/05/02 00:55:38;;;;;;;3.85;3.30;;;;;;;6.97;72.25;101475.00;4990442;28;20050;-84
2022/05/02 00:58:06;;;;;;;2.95;2.70;;;;;;;6.95;72.42;101479.31;4985045;28;20061;-86
2022/05/02 01:00:37;;;;;;;3.53;3.05;;;;;;;6.93;72.35;101479.25;4973907;28;20058;-85
2022/05/02 01:03:06;;;;;;;3.67;3.40;;;;;;;6.93;72.49;101478.38;4988421;28;21076;-86
2022/05/02 01:08:22;;;;;;;3.83;2.78;;;;;;;6.97;74.20;101468.91;5005207;28;20046;-85
2022/05/02 01:10:49;;;;;;;18.45;3.60;;;;;;;7.01;73.14;101468.97;4974066;28;20042;-85
2022/05/02 01:13:46;;;;;;;5.38;2.83;;;;;;;6.98;73.31;101473.28;4989105;28;21304;-85
2022/05/02 01:16:20;;;;;;;2.42;2.28;;;;;;;6.94;73.12;101472.34;5008248;28;20111;-85
2022/05/02 01:18:53;;;;;;;5.97;3.13;;;;;;;6.87;73.66;101466.13;4977294;28;20046;-84
2022/05/02 01:21:29;;;;;;;3.88;3.30;;;;;;;6.85;74.23;101465.22;5005463;28;20053;-86
2022/05/02 01:24:03;;;;;;;3.83;2.85;;;;;;;6.84;74.51;101467.78;4975953;28;20104;-84
2022/05/02 01:26:30;;;;;;;3.20;2.90;;;;;;;6.83;74.09;101458.22;4974597;28;20125;-86
2022/05/02 01:29:00;;;;;;;6.40;2.33;;;;;;;6.79;74.13;101467.69;4990522;28;20049;-84
2022/05/02 01:31:31;;;;;;;3.20;2.97;;;;;;;6.75;74.89;101458.97;4994747;28;20050;-85
2022/05/02 01:33:59;;;;;;;5.32;3.28;;;;;;;6.72;75.02;101456.28;4957423;28;20453;-84
2022/05/02 01:36:30;;;;;;;4.28;3.97;;;;;;;6.72;75.43;101458.03;4987965;28;20045;-86
2022/05/02 01:38:56;;;;;;;2.95;2.75;;;;;;;6.68;74.91;101451.00;4997498;28;20042;-84
2022/05/02 01:41:23;;;;;;;3.13;2.83;;;;;;;6.62;75.36;101447.44;4985430;28;20060;-87
2022/05/02 01:43:50;;;;;;;3.08;2.20;;;;;;;6.57;75.81;101449.06;5009110;28;20025;-86
2022/05/02 01:46:24;;;;;;;4.78;3.17;;;;;;;6.54;76.25;101446.38;4975169;28;22696;-84
2022/05/02 01:48:51;;;;;;;3.67;2.70;;;;;;;6.52;76.02;101453.31;5013312;28;20041;-86
2022/05/02 01:51:17;;;;;;;3.88;3.25;;;;;;;6.54;76.28;101455.94;4994015;28;20041;-83
2022/05/02 01:53:46;;;;;;;3.35;2.75;;;;;;;6.53;76.41;101452.47;4975705;28;20094;-86
2022/05/02 01:56:13;;;;;;;5.95;3.50;;;;;;;6.50;76.41;101457.59;4986786;28;20053;-86
2022/05/02 01:58:40;;;;;;;3.70;2.78;;;;;;;6.49;76.60;101461.03;5000057;28;20102;-85
2022/05/02 02:01:08;;;;;;;4.28;3.03;;;;;;;6.44;76.96;101455.75;5007173;28;20046;-85
2022/05/02 02:03:38;;;;;;;2.92;2.72;;;;;;;6.42;76.67;101456.56;4974657;28;20566;-85
2022/05/02 02:06:06;;;;;;;3.20;2.85;;;;;;;6.38;77.26;101460.81;4988322;28;20050;-86
2022/05/02 02:08:39;;;;;;;3.38;3.08;;;;;;;6.36;77.53;101452.13;4991304;28;20081;-85
2022/05/02 02:11:09;;;;;;;4.38;3.70;;;;;;;6.33;77.88;101457.22;4991107;28;20093;-85
2022/05/02 02:13:45;;;;;;;4.43;3.72;;;;;;;6.32;78.01;101463.25;5008789;28;20053;-85
2022/05/02 02:16:13;;;;;;;7.85;3.88;;;;;;;6.29;78.74;101453.69;4996721;28;20077;-87
2022/05/02 02:18:42;;;;;;;7.68;4.03;;;;;;;6.28;78.65;101451.94;5014505;28;20050;-86
2022/05/02 02:21:11;;;;;;;6.07;3.83;;;;;;;6.26;79.11;101445.81;5009408;28;20050;-85
2022/05/02 02:23:39;;;;;;;4.93;3.17;;;;;;;6.24;79.01;101452.69;4975672;28;20077;-85
2022/05/02 02:26:08;;;;;;;6.55;3.72;;;;;;;6.19;79.03;101443.06;4991449;28;20054;-85
2022/05/02 02:28:35;;;;;;;5.13;3.72;;;;;;;6.16;79.73;101443.88;5004163;28;20053;-85
2022/05/02 02:31:02;;;;;;;6.38;4.18;;;;;;;6.14;80.16;101448.16;4992285;28;20076;-86
2022/05/02 02:33:29;;;;;;;4.85;3.45;;;;;;;6.12;80.14;101442.91;4960717;28;20072;-85
2022/05/02 02:35:55;;;;;;;4.63;3.80;;;;;;;6.11;80.29;101446.38;5007806;28;20037;-85
2022/05/02 02:38:37;;;;;;;;;;;;;;;;;;;;;
2022/05/02 02:41:11;;;;;;;4.75;3.47;;;;;;;6.08;80.21;101443.69;4992612;28;20042;-87
2022/05/02 02:43:44;;;;;;;4.30;3.33;;;;;;;6.07;80.42;101439.31;5007837;28;20466;-86
2022/05/02 02:46:13;;;;;;;3.97;3.58;;;;;;;6.06;80.85;101441.91;4990298;28;20057;-85
2022/05/02 02:48:47;;;;;;;5.93;4.65;;;;;;;6.03;81.06;101440.09;4958167;28;20051;-85
2022/05/02 02:51:17;;;;;;;5.80;5.03;;;;;;;6.03;81.20;101434.91;4986635;28;20065;-84
2022/05/02 02:53:47;;;;;;;7.78;4.20;;;;;;;6.01;81.72;101428.81;5001478;28;20068;-84
2022/05/02 02:56:22;;;;;;;6.72;4.78;;;;;;;5.98;82.40;101420.94;5002987;28;20044;-84
2022/05/02 02:58:50;;;;;;;5.88;4.13;;;;;;;5.97;82.26;101426.94;5005903;28;20104;-85
2022/05/02 03:01:19;;;;;;;5.40;4.10;;;;;;;5.94;82.27;101422.59;4958774;28;20046;-87
2022/05/02 03:03:48;;;;;;;5.35;4.65;;;;;;;5.90;82.53;101418.13;4989963;28;20453;-85
2022/05/02 03:06:16;;;;;;;4.85;4.00;;;;;;;5.88;82.94;101425.03;4991863;28;20042;-85
2022/05/02 03:08:44;;;;;;;6.25;4.40;;;;;;;5.85;82.94;101432.75;4986495;28;20045;-84
2022/05/02 03:11:23;;;;;;;5.18;4.43;;;;;;;5.80;83.03;101424.84;4974562;28;20113;-85
2022/05/02 03:17:01;;;;;;;5.25;4.78;;;;;;;5.76;83.47;101419.53;5010228;28;20052;-85
2022/05/02 03:22:12;;;;;;;5.70;4.75;;;;;;;5.80;84.69;101422.25;4988041;28;20061;-85
2022/05/02 03:24:39;;;;;;;6.13;4.28;;;;;;;5.84;83.88;101415.41;4975279;28;20050;-83
2022/05/02 03:27:12;;;;;;;5.63;4.40;;;;;;;5.90;84.06;101420.72;5008180;28;20041;-86
2022/05/02 03:29:41;;;;;;;9.07;5.25;;;;;;;5.99;83.53;101406.25;4995949;28;20048;-85
2022/05/02 03:32:20;;;;;;;;;;;;;;;;;;;;;
2022/05/02 03:34:47;;;;;;;4.95;4.57;;;;;;;6.15;82.67;101407.44;4992431;28;20050;-85
2022/05/02 03:37:15;;;;;;;7.90;4.78;;;;;;;6.23;81.97;101403.28;4991057;28;20041;-85
2022/05/02 03:39:49;;;;;;;4.55;3.47;;;;;;;6.32;81.89;101407.78;4975590;28;20054;-83
2022/05/02 03:42:26;;;;;;;6.40;4.38;;;;;;;6.39;80.99;101410.56;5006744;28;20171;-86
2022/05/02 03:44:55;;;;;;;4.40;3.47;;;;;;;6.45;80.80;101410.69;4999224;28;20101;-87
2022/05/02 03:47:26;;;;;;;4.18;3.55;;;;;;;6.53;80.54;101421.25;4978187;28;20049;-87
2022/05/02 03:49:56;;;;;;;4.95;4.10;;;;;;;6.60;79.97;101411.84;4981877;28;20042;-85
2022/05/02 03:52:52;;;;;;;;;;;;;;;;;;;;;
2022/05/02 03:55:23;;;;;;;4.10;3.25;;;;;;;6.76;79.05;101402.59;5005818;28;20046;-84
2022/05/02 03:58:04;;;;;;;;;;;;;;;;;;;;;
2022/05/02 04:00:54;;;;;;;4.68;2.90;;;;;;;6.71;79.10;101389.47;5001038;28;20101;-84
2022/05/02 04:03:25;;;;;;;5.15;3.78;;;;;;;6.64;79.24;101400.63;5007219;28;20037;-84
2022/05/02 04:06:10;;;;;;;4.07;3.50;;;;;;;6.54;79.73;101396.97;4993301;28;20060;-86
2022/05/02 04:08:58;;;;;;;5.18;4.68;;;;;;;6.48;79.61;101396.88;4996483;28;20049;-86
2022/05/02 04:11:29;;;;;;;4.50;3.47;;;;;;;6.43;79.82;101395.91;5011686;28;20149;-86
2022/05/02 04:14:14;;;;;;;5.85;3.80;;;;;;;6.40;79.93;101393.22;4979261;28;20046;-88
2022/05/02 04:16:44;;;;;;;4.30;3.88;;;;;;;6.40;80.33;101393.22;4998423;28;20054;-88
2022/05/02 04:19:24;;;;;;;;;;;;;;;;;;;;;
2022/05/02 04:24:50;;;;;;;7.45;3.83;;;;;;;6.54;80.09;101396.97;4971164;28;20081;-85
2022/05/02 04:27:37;;;;;;;7.35;4.32;;;;;;;6.66;80.24;101390.25;4988365;28;20038;-87
2022/05/02 04:30:04;;;;;;;4.00;3.42;;;;;;;6.79;79.07;101398.31;4991596;28;20150;-87
2022/05/02 04:32:31;;;;;;;9.88;4.07;;;;;;;6.92;78.71;101391.63;5004227;28;20070;-83
2022/05/02 04:35:00;;;;;;;3.55;3.13;;;;;;;7.08;77.98;101387.56;4989337;28;20128;-84
2022/05/02 04:37:27;;;;;;;7.25;3.53;;;;;;;7.25;77.17;101393.03;4985583;28;20054;-84
2022/05/02 04:39:54;;;;;;;6.15;4.07;;;;;;;7.36;76.32;101387.13;5005780;28;20050;-86
2022/05/02 04:42:23;;;;;;;5.60;3.53;;;;;;;7.43;75.86;101394.19;4988268;28;20050;-85
2022/05/02 04:44:50;;;;;;;4.72;3.45;;;;;;;7.42;75.55;101395.06;4993730;28;20045;-87
2022/05/02 04:47:17;;;;;;;5.70;3.28;;;;;;;7.34;75.48;101391.44;5006705;28;20773;-85
2022/05/02 04:49:45;;;;;;;5.70;3.85;;;;;;;7.25;75.90;101393.03;4990324;28;20641;-84
2022/05/02 04:52:11;;;;;;;10.57;3.92;;;;;;;7.14;76.51;101391.97;4974269;28;20053;-84
2022/05/02 04:54:39;;;;;;;6.22;4.13;;;;;;;7.06;76.58;101393.59;4971677;28;20108;-84
2022/05/02 04:57:06;;;;;;;6.70;4.88;;;;;;;6.98;77.30;101400.41;4973854;28;20053;-87
2022/05/02 04:59:33;;;;;;;3.75;3.30;;;;;;;6.91;77.58;101394.19;4973470;28;20121;-86
2022/05/02 05:02:00;;;;;;;7.20;3.22;;;;;;;6.86;77.51;101398.44;4994809;28;20111;-86
2022/05/02 05:04:27;;;;;;;5.90;3.88;;;;;;;6.81;77.99;101403.56;4980138;28;20871;-86
2022/05/02 05:07:13;;;;;;;6.00;3.90;;;;;;;6.79;78.70;101403.53;5006876;28;20049;-85
2022/05/02 05:09:42;;;;;;;4.13;3.70;;;;;;;6.79;78.84;101402.63;5010441;28;20125;-86
2022/05/02 05:12:56;;;;;;;3.90;3.53;;;;;;;6.78;78.91;101400.91;4992397;28;20045;-87
2022/05/02 05:16:29;;;;;;;5.85;3.42;;;;;;;6.80;78.77;101404.41;5001606;28;20053;-86
2022/05/02 05:19:27;;;;;;;5.75;3.45;;;;;;;6.83;78.31;101396.66;5006896;28;20050;-88
2022/05/02 05:22:41;;;;;;;4.45;3.60;;;;;;;6.86;78.89;101403.66;4994519;28;20108;-86
2022/05/02 05:28:39;;;;;;;5.28;3.42;;;;;;;6.95;78.31;101394.28;5017595;28;20748;-82
2022/05/02 05:31:56;;;;;;;8.15;4.40;;;;;;;7.03;78.32;101398.75;4969732;28;20046;-84
2022/05/02 05:39:04;;;;;;;5.93;4.07;;;;;;;7.35;77.54;101396.66;5005730;28;20045;-85
2022/05/02 05:42:06;;;;;;;12.23;7.07;;;;;;;7.57;76.30;101404.84;5000290;28;20106;-85
2022/05/02 05:45:29;;;;;;;10.43;5.25;;;;;;;7.78;76.06;101401.66;5022831;28;20054;-85
2022/05/02 05:48:09;;;;;;;5.55;4.10;;;;;;;8.00;75.68;101401.97;5002101;28;20085;-84
2022/05/02 05:51:10;;;;;;;5.45;4.57;;;;;;;8.21;74.98;101409.22;4995945;28;20306;-85
2022/05/02 05:54:04;;;;;;;8.50;5.40;;;;;;;8.42;73.99;101403.38;4991271;28;20053;-83
2022/05/02 05:56:55;;;;;;;6.28;4.97;;;;;;;8.59;73.50;101401.88;4988157;28;20100;-84
2022/05/02 06:00:11;;;;;;;4.57;4.18;;;;;;;8.75;72.69;101404.66;5008570;28;20053;-85
2022/05/02 06:03:18;;;;;;;5.35;4.00;;;;;;;8.94;71.74;101403.09;5000385;28;20057;-85
2022/05/02 06:05:48;;;;;;;5.65;4.13;;;;;;;9.05;70.94;101404.09;4995594;28;20140;-87
2022/05/02 06:08:17;;;;;;;8.93;5.10;;;;;;;9.16;70.59;101405.94;5006630;28;20477;-86
2022/05/02 06:10:47;;;;;;;7.22;4.05;;;;;;;9.30;69.95;101398.22;5006136;28;20107;-84
2022/05/02 06:13:33;;;;;;;6.07;4.57;;;;;;;9.49;69.58;101397.50;4975662;28;20053;-85
2022/05/02 06:19:30;;;;;;;8.45;4.55;;;;;;;9.88;67.30;101401.25;4991842;28;20085;-86
2022/05/02 06:22:09;;;;;;;9.40;4.85;;;;;;;9.97;66.84;101400.41;4973561;28;20053;-85
2022/05/02 06:24:48;;;;;;;8.73;5.10;;;;;;;10.07;66.37;101403.97;4993775;28;20049;-86
2022/05/02 06:27:24;;;;;;;7.28;4.78;;;;;;;10.17;66.21;101397.00;4971203;28;20141;-85
2022/05/02 06:29:53;;;;;;;8.77;5.53;;;;;;;10.36;65.50;101400.63;4985630;28;20049;-85
2022/05/02 06:32:33;;;;;;;8.82;4.65;;;;;;;10.54;65.40;101402.44;4979758;28;20060;-84
2022/05/02 06:35:20;;;;;;;9.82;5.10;;;;;;;10.84;64.58;101401.63;4988574;28;20046;-84
2022/05/02 06:37:59;;;;;;;6.80;4.65;;;;;;;11.03;63.65;101399.94;4970626;28;20501;-85
2022/05/02 06:40:47;;;;;;;7.57;4.72;;;;;;;11.22;63.01;101392.97;4988086;28;20057;-85
2022/05/02 06:43:50;;;;;;;8.23;5.03;;;;;;;11.40;62.23;101386.81;4971120;28;20125;-85
2022/05/02 06:46:34;;;;;;;11.27;4.95;;;;;;;11.49;61.73;101388.56;4978461;28;20049;-85
2022/05/02 06:49:15;;;;;;;10.82;5.30;;;;;;;11.48;61.36;101386.81;5002629;28;20144;-86
2022/05/02 06:51:51;;;;;;;10.40;5.38;;;;;;;11.41;61.34;101387.72;4988193;28;20097;-87
2022/05/02 06:54:39;;;;;;;8.95;7.35;;;;;;;11.35;61.46;101393.81;5007276;28;20121;-85
2022/05/02 06:57:40;;;;;;;7.20;4.88;;;;;;;11.31;61.75;101388.59;5001316;28;20108;-85
2022/05/02 07:00:14;;;;;;;6.80;5.32;;;;;;;11.38;61.46;101388.59;4993266;28;20124;-85
2022/05/02 07:03:04;;;;;;;8.48;5.55;;;;;;;11.45;61.73;101388.59;4980277;28;20057;-84
2022/05/02 07:06:29;;;;;;;6.65;5.15;;;;;;;11.61;60.85;101385.06;4994000;28;20045;-85
2022/05/02 07:09:09;;;;;;;10.40;5.00;;;;;;;11.88;60.27;101399.00;4963124;28;20053;-84
2022/05/02 07:12:15;;;;;;;9.25;5.03;;;;;;;11.97;60.01;101396.41;5018290;28;20471;-85
2022/05/02 07:15:03;;;;;;;6.95;5.28;;;;;;;12.06;59.55;101387.63;4997042;28;20141;-85
2022/05/02 07:18:02;;;;;;;8.43;5.25;;;;;;;12.26;58.84;101391.94;5015925;28;20694;-84
2022/05/02 07:21:16;;;;;;;6.63;5.22;;;;;;;12.48;58.96;101393.56;5015594;28;20049;-86
2022/05/02 07:24:24;;;;;;;;;;;;;;;12.65;57.13;101384.75;5004160;28;20062;-86
2022/05/02 07:28:13;;;;;;;10.52;5.85;;;;;;;12.73;57.32;101389.03;4995955;28;19992;-87
2022/05/02 07:30:43;;;;;;;12.52;5.82;;;;;;;12.72;57.09;101391.69;5016642;28;20046;-86
2022/05/02 07:33:17;;;;;;;9.15;6.30;;;;;;;12.69;57.30;101387.31;4976483;28;20818;-86
2022/05/02 07:35:48;;;;;;;8.27;5.72;;;;;;;12.73;57.54;101385.56;5013427;28;20053;-85
2022/05/02 07:38:29;;;;;;;;;;;;;;;;;;;;;
2022/05/02 07:44:16;;;;;;;7.18;5.55;;;;;;;12.99;55.92;101389.78;4966487;28;20053;-84
2022/05/02 07:46:50;;;;;;;9.02;5.55;;;;;;;13.21;56.01;101391.34;4994564;28;20041;-85
2022/05/02 07:49:35;;;;;;;7.95;5.10;;;;;;;13.56;54.97;101391.97;4998154;28;20056;-85
2022/05/02 07:52:08;;;;;;;9.13;5.50;;;;;;;13.95;54.25;101399.44;5000462;28;20097;-85
2022/05/02 07:54:43;;;;;;;10.57;7.47;;;;;;;14.42;52.70;101391.84;5008834;28;21569;-86
2022/05/02 07:57:23;;;;;;;14.60;6.20;;;;;;;14.72;52.14;101385.34;4978296;28;20136;-85
2022/05/02 07:59:57;;;;;;;6.20;5.45;;;;;;;15.17;50.51;101385.50;4979789;28;20216;-85
2022/05/02 08:02:34;;;;;;;8.48;5.15;;;;;;;15.51;50.13;101389.34;4991152;28;20043;-85
2022/05/02 08:08:18;;;;;;;12.82;5.25;;;;;;;16.09;47.88;101394.44;4964660;28;20880;-85
2022/05/02 08:11:32;;;;;;;6.20;5.00;;;;;;;16.09;47.70;101394.44;4992560;28;20050;-85
2022/05/02 08:14:25;;;;;;;8.05;4.25;;;;;;;16.29;47.24;101388.78;4995723;28;20414;-84
2022/05/02 08:17:21;;;;;;;8.48;5.47;;;;;;;16.49;46.54;101396.28;4975084;28;20042;-86
2022/05/02 08:20:23;;;;;;;9.20;5.70;;;;;;;16.69;45.92;101387.91;5008968;28;20132;-86
2022/05/02 08:29:34;;;;;;;13.57;5.28;;;;;;;18.15;42.21;101385.97;4996047;28;20041;-84
2022/05/02 08:32:32;;;;;;;5.22;3.95;;;;;;;18.67;42.03;101386.19;4984106;28;20057;-86
2022/05/02 08:35:20;;;;;;;7.93;4.93;;;;;;;19.82;40.13;101380.66;4978057;28;20049;-86
2022/05/02 08:38:14;;;;;;;6.80;5.00;;;;;;;20.77;37.13;101380.66;5005384;28;20065;-83
2022/05/02 08:41:33;;;;;;;4.13;3.72;;;;;;;21.43;35.43;101381.50;4993161;28;20069;-86
2022/05/02 08:44:48;;;;;;;9.80;4.60;;;;;;;21.75;35.36;101387.28;4965473;28;20109;-86
2022/05/02 08:48:26;;;;;;;7.55;3.67;;;;;;;21.90;34.36;101383.91;4994863;28;20042;-86
2022/05/02 08:51:35;;;;;;;5.90;4.22;;;;;;;22.37;34.29;101376.47;4994571;28;20083;-86
2022/05/02 08:54:43;;;;;;;11.57;6.25;;;;;;;22.83;33.18;101376.06;4998138;28;20122;-86
2022/05/02 08:57:47;;;;;;;7.95;4.07;;;;;;;22.81;32.55;101378.81;4981709;28;20148;-86
2022/05/02 09:01:03;;;;;;;8.82;4.85;;;;;;;23.06;32.97;101369.59;4993584;28;20146;-86
2022/05/02 09:04:16;;;;;;;7.28;3.78;;;;;;;23.95;31.64;101370.38;4978026;28;20149;-84
2022/05/02 09:07:31;;;;;;;5.05;4.05;;;;;;;24.75;30.09;101364.25;4983908;28;20114;-86
2022/05/02 09:10:12;;;;;;;3.58;3.25;;;;;;;24.63;29.86;101359.53;4983761;28;20165;-83
2022/05/02 09:13:25;;;;;;;6.03;4.15;;;;;;;24.98;29.11;101362.03;4991046;28;20578;-85
2022/05/02 09:16:25;;;;;;;8.75;4.93;;;;;;;24.82;29.76;101357.56;4975018;28;20046;-85
2022/05/02 09:19:35;;;;;;;8.93;4.40;;;;;;;24.59;29.48;101354.38;4975352;28;20054;-85
2022/05/02 09:22:42;;;;;;;5.80;3.60;;;;;;;24.88;30.00;101348.34;4957432;28;20572;-83
2022/05/02 09:25:18;;;;;;;4.25;3.85;;;;;;;24.59;29.86;101349.03;4990692;28;20374;-83
2022/05/02 09:28:30;;;;;;;8.00;4.60;;;;;;;24.45;29.27;101341.75;4970437;28;20050;-83
2022/05/02 09:31:36;;;;;;;4.65;3.88;;;;;;;25.26;28.77;101350.56;4973691;28;20058;-83
2022/05/02 09:34:37;;;;;;;6.43;3.78;;;;;;;26.13;27.51;101339.94;4974912;28;20061;-85
2022/05/02 09:37:22;;;;;;;4.50;3.80;;;;;;;27.13;26.26;101338.75;4971290;28;20050;-84
2022/05/02 09:39:54;;;;;;;9.25;4.13;;;;;;;27.27;26.83;101339.63;4969575;28;20756;-84
2022/05/02 09:42:58;;;;;;;10.00;4.75;;;;;;;27.10;25.63;101336.25;4985832;28;20097;-83
2022/05/02 09:51:54;;;;;;;8.23;4.65;;;;;;;26.99;26.21;101317.34;4976475;28;20082;-86
2022/05/02 09:58:07;;;;;;;8.43;4.95;;;;;;;27.07;25.54;101312.31;4992037;28;20046;-85
2022/05/02 10:01:11;;;;;;;10.82;5.90;;;;;;;27.26;24.98;101311.03;4987760;28;20547;-82
2022/05/02 10:03:59;;;;;;;7.72;5.18;;;;;;;27.72;24.11;101306.00;4996776;28;20053;-84
2022/05/02 10:06:58;;;;;;;7.57;4.90;;;;;;;27.67;23.68;101310.00;4999194;28;20061;-88
2022/05/02 10:09:51;;;;;;;5.15;4.43;;;;;;;27.74;23.89;101300.50;4989394;28;20057;-84
2022/05/02 10:12:42;;;;;;;5.18;4.18;;;;;;;28.21;23.82;101298.06;5010515;28;20046;-84
2022/05/02 10:15:48;;;;;;;6.07;4.38;;;;;;;28.85;22.08;101299.63;4980627;28;20042;-86
2022/05/02 10:18:17;;;;;;;5.15;4.50;;;;;;;29.08;22.32;101291.59;5010990;28;20046;-85
2022/05/02 10:21:17;;;;;;;7.78;4.38;;;;;;;29.07;22.15;101297.97;4994161;28;20157;-84
2022/05/02 10:24:39;;;;;;;6.30;3.40;;;;;;;28.91;21.58;101295.59;4986265;28;20057;-85
2022/05/02 10:27:27;;;;;;;3.58;3.28;;;;;;;28.92;22.37;101292.78;4997869;28;20076;-87
2022/05/02 10:30:12;;;;;;;4.32;3.70;;;;;;;29.75;21.26;101292.69;5018854;28;20050;-84
2022/05/02 10:32:46;;;;;;;5.03;3.80;;;;;;;30.42;20.76;101282.78;4995089;28;20042;-82
2022/05/02 10:35:17;;;;;;;5.78;4.35;;;;;;;30.72;20.27;101281.22;4995335;28;20050;-85
2022/05/02 10:38:04;;;;;;;4.45;3.65;;;;;;;30.06;20.07;101279.44;4995667;28;20049;-86
2022/05/02 10:40:39;;;;;;;3.97;3.67;;;;;;;29.70;21.20;101275.03;4995923;28;20074;-84
2022/05/02 10:43:15;;;;;;;3.90;3.58;;;;;;;30.28;20.60;101275.81;5011827;28;20108;-83
2022/05/02 10:45:50;;;;;;;8.13;4.43;;;;;;;30.73;20.24;101272.97;5010002;28;20050;-83
2022/05/02 10:49:35;;;;;;;7.72;4.32;;;;;;;30.15;19.94;101270.56;4987192;28;20085;-82
2022/05/02 10:52:21;;;;;;;6.00;4.00;;;;;;;29.80;20.44;101258.06;4979845;28;20058;-83
2022/05/02 10:55:06;;;;;;;5.13;3.78;;;;;;;29.94;20.83;101252.44;4988828;28;20050;-84
2022/05/02 10:57:43;;;;;;;11.52;4.95;;;;;;;30.32;19.96;101251.09;4993907;28;20042;-84
2022/05/02 11:00:15;;;;;;;4.40;4.00;;;;;;;30.12;20.02;101250.06;4989245;28;20212;-82
2022/05/02 11:03:31;;;;;;;;;;;;;;;;;;;;;
2022/05/02 11:06:21;;;;;;;5.60;3.50;;;;;;;30.30;20.18;101249.56;4998288;28;20088;-84
2022/05/02 11:09:04;;;;;;;4.78;4.28;;;;;;;29.65;19.80;101244.00;4983849;28;20058;-83
2022/05/02 11:11:52;;;;;;;4.90;3.90;;;;;;;29.47;20.07;101249.88;4980039;28;20461;-83
2022/05/02 11:14:40;;;;;;;5.32;3.50;;;;;;;30.18;19.85;101241.47;5001430;28;20069;-83
2022/05/02 11:17:36;;;;;;;2.95;2.75;;;;;;;31.42;18.38;101231.00;5000351;28;20144;-83
2022/05/02 11:20:43;;;;;;;4.10;3.80;;;;;;;31.80;18.36;101224.00;4996201;28;20124;-86
2022/05/02 11:23:44;;;;;;;4.40;3.70;;;;;;;32.42;17.84;101229.22;4999834;28;20065;-86
2022/05/02 11:26:43;;;;;;;5.35;3.45;;;;;;;33.20;17.46;101213.84;4995988;28;20138;-82
2022/05/02 11:30:08;;;;;;;3.35;3.13;;;;;;;34.15;16.22;101213.66;4981982;28;20507;-85
2022/05/02 11:32:54;;;;;;;3.33;2.80;;;;;;;33.84;17.03;101216.72;5004980;28;20053;-86
2022/05/02 11:35:34;;;;;;;3.65;3.45;;;;;;;33.36;16.87;101221.38;5007415;28;20050;-87
2022/05/02 11:38:07;;;;;;;3.80;3.35;;;;;;;33.61;16.92;101211.69;5002955;28;20137;-90
2022/05/02 11:40:57;;;;;;;;;;;;;;;;;;;;;
2022/05/02 11:43:31;;;;;;;4.75;4.13;;;;;;;33.92;16.67;101204.09;4997535;28;20469;-84
2022/05/02 11:46:25;;;;;;;3.90;3.60;;;;;;;33.91;16.59;101205.09;5000438;28;20122;-85
2022/05/02 11:49:38;;;;;;;3.88;3.30;;;;;;;33.89;16.01;101208.97;4993292;28;20041;-85
2022/05/02 11:52:14;;;;;;;5.88;3.50;;;;;;;34.07;16.43;101198.97;5014058;23;20077;-86
2022/05/02 11:54:44;;;;;;;4.30;3.88;;;;;;;34.59;16.10;101200.13;4958263;28;20041;-84
2022/05/02 11:58:05;;;;;;;;;;;;;;;;;;;;;
2022/05/02 12:00:46;;;;;;;3.88;3.40;;;;;;;34.69;16.10;101200.03;4896762;29;20076;-88
2022/05/02 12:03:25;;;;;;;5.00;4.13;;;;;;;34.16;16.05;101196.31;4897417;29;20075;-84
2022/05/02 12:06:05;;;;;;;3.42;3.22;;;;;;;33.99;16.86;101198.91;4963013;28;20222;-85
2022/05/02 12:08:59;;;;;;;3.92;3.08;;;;;;;34.87;16.11;101192.69;4968419;28;20142;-83
2022/05/02 12:11:59;;;;;;;4.10;3.80;;;;;;;34.98;15.55;101194.31;4983706;28;20050;-84
2022/05/02 12:14:38;;;;;;;4.97;3.90;;;;;;;34.99;16.27;101184.25;4969986;28;20062;-85
2022/05/02 12:17:46;;;;;;;2.78;2.58;;;;;;;35.69;15.25;101173.16;4956909;28;20043;-84
2022/05/02 12:20:42;;;;;;;4.10;3.70;;;;;;;36.36;15.14;101174.16;4971809;28;20058;-85
2022/05/02 12:23:18;;;;;;;4.78;4.18;;;;;;;36.75;14.89;101174.28;4967207;28;20397;-87
2022/05/02 12:25:58;;;;;;;4.47;3.53;;;;;;;36.97;14.77;101169.13;4974107;28;20085;-86
2022/05/02 12:29:04;;;;;;;3.85;3.47;;;;;;;36.65;14.39;101170.88;4968739;28;20117;-84
2022/05/02 12:34:52;;;;;;;3.47;3.17;;;;;;;36.14;15.25;101173.78;4968306;28;20145;-87
2022/05/02 12:37:51;;;;;;;4.35;3.95;;;;;;;36.69;14.88;101163.22;4981288;28;20046;-85
2022/05/02 12:43:55;;;;;;;5.00;4.35;;;;;;;36.97;14.10;101155.47;4964105;28;20400;-83
2022/05/02 12:46:40;;;;;;;4.50;3.80;;;;;;;36.49;14.56;101151.81;4941051;28;20047;-85
2022/05/02 12:49:28;;;;;;;3.45;2.63;;;;;;;36.45;14.73;101150.47;4966569;28;20562;-86
2022/05/02 12:52:15;;;;;;;5.95;3.50;;;;;;;35.16;15.19;101150.66;4941696;28;20100;-86
2022/05/02 13:03:52;;;;;;;;;;;;;;;;;;;;;
2022/05/02 13:06:31;;;;;;;4.85;3.90;;;;;;;24.92;24.64;101149.03;4970886;28;20050;-85
2022/05/02 13:09:16;;;;;;;5.03;4.47;;;;;;;24.83;25.12;101146.91;4964793;28;20056;-88
2022/05/02 13:11:45;;;;;;;4.75;4.32;;;;;;;25.30;24.75;101142.22;4981305;28;20054;-86
2022/05/02 13:14:29;;;;;;;5.07;4.40;;;;;;;26.20;23.92;101142.69;4977899;28;20046;-86
2022/05/02 13:19:42;;;;;;;6.93;5.03;;;;;;;25.27;24.58;101143.28;4990976;28;20236;-84
2022/05/02 13:22:10;;;;;;;4.00;3.60;;;;;;;25.28;24.94;101131.59;4959256;28;20054;-87
2022/05/02 13:24:52;;;;;;;4.20;3.90;;;;;;;26.41;24.11;101130.50;4975406;28;20042;-89
2022/05/02 13:27:43;;;;;;;5.45;3.85;;;;;;;28.94;21.60;101123.72;4962530;28;20156;-84
2022/05/02 13:30:13;;;;;;;6.72;5.18;;;;;;;29.94;20.40;101122.03;4975500;28;20096;-85
2022/05/02 13:33:08;;;;;;;6.40;5.63;;;;;;;30.03;20.32;101116.72;4991181;28;20054;-85
2022/05/02 13:35:41;;;;;;;4.80;4.43;;;;;;;30.92;19.94;101112.75;4960026;28;20137;-86
2022/05/02 13:38:19;;;;;;;4.45;4.03;;;;;;;32.44;18.56;101118.00;4953735;28;20049;-87
2022/05/02 13:41:18;;;;;;;5.32;3.92;;;;;;;34.18;16.80;101107.38;4970576;28;20057;-84
2022/05/02 13:44:38;;;;;;;8.57;6.07;;;;;;;34.14;16.68;101109.56;4986435;28;20460;-89
2022/05/02 13:47:17;;;;;;;4.88;4.05;;;;;;;34.88;16.43;101101.94;4962501;28;20054;-86
2022/05/02 13:50:05;;;;;;;6.38;4.13;;;;;;;35.55;15.98;101100.31;4967212;28;20046;-85
2022/05/02 13:52:59;;;;;;;4.50;4.10;;;;;;;35.28;15.84;101094.09;4955331;28;20053;-88
2022/05/02 13:55:44;;;;;;;4.93;4.30;;;;;;;34.15;17.22;101094.97;4985044;28;20100;-86
2022/05/02 13:58:35;;;;;;;3.78;3.47;;;;;;;31.38;19.25;101101.53;4961946;28;20429;-87
2022/05/02 14:01:32;;;;;;;4.45;4.15;;;;;;;30.01;20.84;101098.94;4951340;28;20136;-87